createdAt,value
2022-08-10T00:00:01.978Z,5.50
2022-08-10T00:01:02.156Z,5.70
2022-08-10T00:02:02.075Z,5.80
2022-08-10T00:03:02.027Z,5.90
2022-08-10T00:04:02.041Z,5.80
2022-08-10T00:05:02.046Z,6.80
2022-08-10T00:06:02.058Z,6.60
2022-08-10T00:07:02.072Z,5.50
2022-08-10T00:08:02.087Z,6.20
2022-08-10T00:09:02.097Z,5.90
2022-08-10T00:10:02.114Z,6.10
2022-08-10T00:11:02.127Z,6.40
2022-08-10T00:12:02.142Z,6.20
2022-08-10T00:13:02.153Z,5.60
2022-08-10T00:14:02.167Z,5.60
2022-08-10T00:15:02.180Z,7.20
2022-08-10T00:16:02.196Z,4.90
2022-08-10T00:17:02.206Z,5.60
2022-08-10T00:18:02.226Z,4.90
2022-08-10T00:19:02.237Z,7.70
2022-08-10T00:20:27.993Z,6.20
2022-08-10T00:21:02.306Z,6.80
2022-08-10T00:22:02.325Z,6.20
2022-08-10T00:23:02.333Z,5.00
2022-08-10T00:24:02.348Z,4.70
2022-08-10T00:25:02.363Z,5.50
2022-08-10T00:26:02.389Z,5.30
2022-08-10T00:28:01.719Z,6.00
2022-08-10T00:28:04.063Z,5.60
2022-08-10T00:29:02.417Z,6.70
2022-08-10T00:30:02.433Z,6.30
2022-08-10T00:31:02.443Z,5.00
2022-08-10T00:32:02.479Z,5.20
2022-08-10T00:33:02.675Z,5.20
2022-08-10T00:34:02.463Z,4.90
2022-08-10T00:35:02.453Z,5.40
2022-08-10T00:36:02.465Z,5.10
2022-08-10T00:37:02.480Z,5.80
2022-08-10T00:38:02.494Z,4.90
2022-08-10T00:39:02.508Z,5.30
2022-08-10T00:41:01.474Z,5.70
2022-08-10T00:41:02.602Z,6.30
2022-08-10T00:42:07.439Z,6.00
2022-08-10T00:43:02.608Z,5.40
2022-08-10T00:44:02.621Z,5.40
2022-08-10T00:45:02.588Z,5.10
2022-08-10T00:46:02.601Z,6.20
2022-08-10T00:47:02.615Z,5.20
2022-08-10T00:48:02.630Z,5.40
2022-08-10T00:49:02.643Z,5.80
2022-08-10T00:50:02.657Z,5.40
2022-08-10T00:51:02.670Z,5.50
2022-08-10T00:52:02.684Z,5.50
2022-08-10T00:53:02.696Z,6.10
2022-08-10T00:54:02.710Z,5.40
2022-08-10T00:55:02.723Z,5.50
2022-08-10T00:56:34.955Z,5.10
2022-08-10T00:57:17.038Z,6.50
2022-08-10T00:58:02.765Z,5.40
2022-08-10T00:59:02.779Z,5.60
2022-08-10T01:00:02.798Z,5.20
2022-08-10T01:01:02.862Z,5.60
2022-08-10T01:02:10.923Z,5.40
2022-08-10T01:03:02.970Z,5.60
2022-08-10T01:04:57.574Z,4.40
2022-08-10T01:05:03.144Z,5.50
2022-08-10T01:06:02.874Z,5.80
2022-08-10T01:07:02.889Z,5.90
2022-08-10T01:08:02.900Z,5.50
2022-08-10T01:09:02.913Z,5.50
2022-08-10T01:10:02.935Z,5.90
2022-08-10T01:11:02.943Z,4.40
2022-08-10T01:12:37.619Z,4.80
2022-08-10T01:13:02.967Z,5.30
2022-08-10T01:14:02.982Z,5.60
2022-08-10T01:15:02.998Z,5.80
2022-08-10T01:16:03.009Z,5.20
2022-08-10T01:17:03.026Z,5.20
2022-08-10T01:18:03.035Z,5.40
2022-08-10T01:19:03.050Z,4.60
2022-08-10T01:20:03.063Z,6.00
2022-08-10T01:21:03.075Z,5.60
2022-08-10T01:22:03.090Z,6.30
2022-08-10T01:23:03.105Z,5.30
2022-08-10T01:24:03.117Z,5.80
2022-08-10T01:25:03.133Z,5.50
2022-08-10T01:26:10.336Z,5.60
2022-08-10T01:27:03.157Z,5.90
2022-08-10T01:28:03.181Z,5.10
2022-08-10T01:29:03.185Z,6.90
2022-08-10T01:30:03.198Z,5.40
2022-08-10T01:31:03.212Z,6.20
2022-08-10T01:32:03.230Z,5.30
2022-08-10T01:33:03.238Z,6.00
2022-08-10T01:34:03.255Z,5.40
2022-08-10T01:35:03.269Z,5.00
2022-08-10T01:36:03.280Z,5.60
2022-08-10T01:37:03.293Z,5.10
2022-08-10T01:38:03.511Z,6.10
2022-08-10T01:39:03.715Z,4.90
2022-08-10T01:40:03.336Z,5.70
2022-08-10T01:41:03.348Z,5.70
2022-08-10T01:42:03.360Z,5.10
2022-08-10T01:43:08.422Z,6.20
2022-08-10T01:44:03.645Z,5.50
2022-08-10T01:45:03.399Z,5.50
2022-08-10T01:46:03.415Z,5.00
2022-08-10T01:47:03.429Z,5.90
2022-08-10T01:48:03.442Z,5.20
2022-08-10T01:49:03.458Z,6.00
2022-08-10T01:50:03.469Z,5.10
2022-08-10T01:51:03.483Z,6.10
2022-08-10T01:52:03.496Z,6.10
2022-08-10T01:53:03.507Z,5.10
2022-08-10T01:54:03.523Z,5.40
2022-08-10T01:55:03.535Z,5.90
2022-08-10T01:56:03.550Z,6.10
2022-08-10T01:57:03.563Z,5.60
2022-08-10T01:58:03.577Z,4.70
2022-08-10T01:59:03.590Z,5.80
2022-08-10T02:00:03.774Z,6.10
2022-08-10T02:01:03.685Z,5.10
2022-08-10T02:02:03.632Z,5.60
2022-08-10T02:03:03.645Z,5.20
2022-08-10T02:04:06.005Z,5.10
2022-08-10T02:05:03.671Z,6.10
2022-08-10T02:06:03.685Z,6.30
2022-08-10T02:07:03.700Z,5.60
2022-08-10T02:08:03.711Z,6.30
2022-08-10T02:09:06.179Z,4.70
2022-08-10T02:10:03.741Z,6.00
2022-08-10T02:11:03.752Z,5.90
2022-08-10T02:12:07.539Z,5.40
2022-08-10T02:13:03.781Z,5.20
2022-08-10T02:14:03.793Z,4.50
2022-08-10T02:15:03.809Z,4.80
2022-08-10T02:16:03.820Z,4.60
2022-08-10T02:17:03.831Z,6.00
2022-08-10T02:18:03.846Z,6.40
2022-08-10T02:19:03.860Z,5.10
2022-08-10T02:20:03.874Z,5.80
2022-08-10T02:21:03.893Z,5.10
2022-08-10T02:22:35.973Z,5.10
2022-08-10T02:23:03.914Z,5.40
2022-08-10T02:24:03.926Z,5.40
2022-08-10T02:25:03.940Z,4.90
2022-08-10T02:26:03.955Z,6.50
2022-08-10T02:27:03.969Z,5.80
2022-08-10T02:28:03.983Z,4.70
2022-08-10T02:29:03.996Z,6.30
2022-08-10T02:30:04.007Z,5.40
2022-08-10T02:31:05.005Z,5.10
2022-08-10T02:32:04.034Z,5.20
2022-08-10T02:33:04.047Z,5.60
2022-08-10T02:34:04.062Z,5.50
2022-08-10T02:35:04.075Z,5.80
2022-08-10T02:36:04.088Z,4.80
2022-08-10T02:37:04.100Z,4.80
2022-08-10T02:38:04.115Z,5.40
2022-08-10T02:39:04.136Z,4.30
2022-08-10T02:40:04.142Z,5.60
2022-08-10T02:45:12.667Z,4.90
2022-08-10T02:45:13.340Z,4.30
2022-08-10T02:45:18.654Z,6.50
2022-08-10T02:45:22.198Z,5.60
2022-08-10T02:45:26.836Z,4.80
2022-08-10T02:46:04.222Z,5.80
2022-08-10T02:47:04.236Z,4.00
2022-08-10T02:48:04.250Z,5.30
2022-08-10T02:49:04.261Z,4.40
2022-08-10T02:50:04.277Z,5.10
2022-08-10T02:51:04.289Z,5.70
2022-08-10T02:52:07.331Z,4.90
2022-08-10T02:53:04.315Z,4.60
2022-08-10T02:54:04.329Z,4.60
2022-08-10T02:55:06.146Z,4.90
2022-08-10T02:56:04.358Z,4.30
2022-08-10T02:57:04.369Z,5.10
2022-08-10T02:58:17.510Z,4.50
2022-08-10T02:59:04.396Z,5.10
2022-08-10T03:00:04.410Z,5.30
2022-08-10T03:01:04.455Z,4.40
2022-08-10T03:02:04.440Z,4.90
2022-08-10T03:03:04.450Z,4.40
2022-08-10T03:04:04.486Z,5.00
2022-08-10T03:05:04.477Z,4.90
2022-08-10T03:06:04.491Z,4.90
2022-08-10T03:07:04.507Z,4.90
2022-08-10T03:08:04.519Z,4.00
2022-08-10T03:09:04.532Z,6.10
2022-08-10T03:10:04.661Z,5.00
2022-08-10T03:11:04.560Z,4.70
2022-08-10T03:12:35.083Z,4.80
2022-08-10T03:13:04.587Z,4.50
2022-08-10T03:14:04.598Z,5.00
2022-08-10T03:15:04.612Z,4.80
2022-08-10T03:16:04.626Z,5.50
2022-08-10T03:17:04.640Z,4.50
2022-08-10T03:18:04.652Z,4.80
2022-08-10T03:19:04.666Z,5.30
2022-08-10T03:20:36.504Z,4.80
2022-08-10T03:21:06.823Z,4.60
2022-08-10T03:22:04.706Z,4.30
2022-08-10T03:23:04.720Z,4.20
2022-08-10T03:24:30.172Z,4.70
2022-08-10T03:25:04.756Z,4.60
2022-08-10T03:26:04.759Z,5.20
2022-08-10T03:27:04.775Z,4.30
2022-08-10T03:28:04.787Z,3.70
2022-08-10T03:29:04.799Z,4.40
2022-08-10T03:30:28.669Z,4.50
2022-08-10T03:31:04.827Z,3.90
2022-08-10T03:32:04.845Z,4.60
2022-08-10T03:33:04.855Z,4.40
2022-08-10T03:34:04.867Z,5.00
2022-08-10T03:35:04.880Z,4.40
2022-08-10T03:36:43.572Z,4.80
2022-08-10T03:37:04.908Z,5.00
2022-08-10T03:38:04.920Z,4.60
2022-08-10T03:39:05.012Z,4.40
2022-08-10T03:40:04.948Z,4.90
2022-08-10T03:41:04.962Z,3.80
2022-08-10T03:42:04.974Z,5.40
2022-08-10T03:43:04.989Z,4.90
2022-08-10T03:44:05.003Z,4.80
2022-08-10T03:45:05.015Z,4.00
2022-08-10T03:46:05.029Z,4.40
2022-08-10T03:47:05.041Z,5.20
2022-08-10T03:48:05.056Z,5.10
2022-08-10T03:49:05.068Z,4.40
2022-08-10T03:50:27.885Z,5.40
2022-08-10T03:51:05.095Z,5.00
2022-08-10T03:52:05.107Z,4.80
2022-08-10T03:53:05.121Z,3.80
2022-08-10T03:54:07.186Z,5.30
2022-08-10T03:55:05.149Z,3.70
2022-08-10T03:56:29.057Z,3.70
2022-08-10T03:57:05.176Z,4.60
2022-08-10T03:58:05.189Z,4.80
2022-08-10T03:59:05.304Z,3.70
2022-08-10T04:00:05.217Z,3.90
2022-08-10T04:01:05.262Z,4.30
2022-08-10T04:02:41.520Z,4.40
2022-08-10T04:03:05.258Z,4.00
2022-08-10T04:04:10.853Z,4.10
2022-08-10T04:05:05.280Z,4.90
2022-08-10T04:06:05.297Z,3.90
2022-08-10T04:07:05.307Z,4.30
2022-08-10T04:08:05.322Z,4.80
2022-08-10T04:09:05.336Z,5.00
2022-08-10T04:10:05.350Z,4.20
2022-08-10T04:11:05.364Z,3.40
2022-08-10T04:12:05.375Z,4.20
2022-08-10T04:13:05.389Z,4.70
2022-08-10T04:14:05.402Z,5.10
2022-08-10T04:15:05.418Z,4.30
2022-08-10T04:16:07.703Z,3.70
2022-08-10T04:17:05.447Z,5.30
2022-08-10T04:18:06.460Z,4.20
2022-08-10T04:19:05.471Z,4.30
2022-08-10T04:20:05.483Z,5.00
2022-08-10T04:21:05.496Z,4.00
2022-08-10T04:22:05.510Z,4.90
2022-08-10T04:23:05.523Z,5.00
2022-08-10T04:24:05.538Z,4.10
2022-08-10T04:25:05.555Z,4.70
2022-08-10T04:26:05.565Z,4.00
2022-08-10T04:27:05.577Z,4.60
2022-08-10T04:28:05.589Z,4.00
2022-08-10T04:29:05.603Z,4.80
2022-08-10T04:30:05.617Z,4.40
2022-08-10T04:31:05.630Z,5.10
2022-08-10T04:32:05.643Z,4.10
2022-08-10T04:33:05.656Z,4.30
2022-08-10T04:34:08.842Z,4.00
2022-08-10T04:35:05.683Z,3.70
2022-08-10T04:36:05.696Z,4.20
2022-08-10T04:37:09.015Z,3.60
2022-08-10T04:38:05.728Z,3.70
2022-08-10T04:39:05.770Z,4.00
2022-08-10T04:40:05.754Z,4.00
2022-08-10T04:41:05.763Z,4.20
2022-08-10T04:42:05.776Z,3.50
2022-08-10T04:43:12.276Z,4.80
2022-08-10T04:44:05.803Z,4.80
2022-08-10T04:45:05.818Z,4.00
2022-08-10T04:46:08.895Z,4.50
2022-08-10T04:47:05.843Z,3.40
2022-08-10T04:48:05.857Z,4.10
2022-08-10T04:49:05.869Z,4.90
2022-08-10T04:50:05.884Z,4.10
2022-08-10T04:51:05.903Z,3.80
2022-08-10T04:52:05.911Z,5.40
2022-08-10T04:53:05.923Z,4.70
2022-08-10T04:54:08.084Z,4.10
2022-08-10T04:55:05.952Z,4.30
2022-08-10T04:56:05.964Z,3.90
2022-08-10T04:57:05.977Z,3.80
2022-08-10T04:58:05.990Z,3.40
2022-08-10T04:59:06.038Z,4.10
2022-08-10T05:00:07.443Z,3.70
2022-08-10T05:01:06.102Z,3.60
2022-08-10T05:02:29.284Z,4.50
2022-08-10T05:03:06.058Z,4.30
2022-08-10T05:04:34.462Z,4.20
2022-08-10T05:05:06.083Z,4.60
2022-08-10T05:06:06.096Z,4.50
2022-08-10T05:07:06.112Z,3.60
2022-08-10T05:08:06.125Z,4.90
2022-08-10T05:09:06.138Z,3.90
2022-08-10T05:10:09.274Z,3.40
2022-08-10T05:11:06.164Z,4.50
2022-08-10T05:12:06.179Z,3.80
2022-08-10T05:13:06.191Z,4.50
2022-08-10T05:14:06.226Z,4.30
2022-08-10T05:15:06.219Z,3.40
2022-08-10T05:16:06.248Z,3.30
2022-08-10T05:17:06.244Z,3.50
2022-08-10T05:18:11.298Z,4.30
2022-08-10T05:19:06.273Z,3.80
2022-08-10T05:20:07.233Z,3.70
2022-08-10T05:21:06.297Z,4.30
2022-08-10T05:22:06.311Z,3.90
2022-08-10T05:23:06.325Z,3.80
2022-08-10T05:24:06.337Z,3.00
2022-08-10T05:25:06.352Z,3.90
2022-08-10T05:26:06.365Z,3.70
2022-08-10T05:27:09.954Z,3.20
2022-08-10T05:28:06.971Z,3.60
2022-08-10T05:29:06.403Z,4.00
2022-08-10T05:30:06.418Z,3.90
2022-08-10T05:31:06.441Z,3.30
2022-08-10T05:32:06.443Z,3.60
2022-08-10T05:33:08.859Z,4.00
2022-08-10T05:34:06.470Z,2.80
2022-08-10T05:35:06.484Z,3.60
2022-08-10T05:36:06.497Z,4.60
2022-08-10T05:37:06.509Z,3.60
2022-08-10T05:38:12.664Z,3.20
2022-08-10T05:39:06.557Z,3.50
2022-08-10T05:40:06.551Z,3.50
2022-08-10T05:41:06.594Z,2.90
2022-08-10T05:42:06.576Z,3.40
2022-08-10T05:43:06.590Z,3.60
2022-08-10T05:44:06.605Z,3.80
2022-08-10T05:45:06.617Z,3.70
2022-08-10T05:46:17.395Z,3.10
2022-08-10T05:47:09.704Z,4.20
2022-08-10T05:48:54.864Z,2.80
2022-08-10T05:49:06.669Z,3.20
2022-08-10T05:50:06.683Z,2.90
2022-08-10T05:51:06.697Z,3.60
2022-08-10T05:52:06.709Z,3.30
2022-08-10T05:53:59.788Z,4.00
2022-08-10T05:54:07.172Z,3.70
2022-08-10T05:55:06.749Z,3.00
2022-08-10T05:56:06.764Z,3.20
2022-08-10T05:57:06.776Z,3.00
2022-08-10T05:58:06.795Z,3.10
2022-08-10T05:59:06.803Z,4.00
2022-08-10T06:00:34.604Z,3.10
2022-08-10T06:01:06.881Z,2.90
2022-08-10T06:02:33.289Z,3.40
2022-08-10T06:03:06.855Z,3.60
2022-08-10T06:04:06.873Z,2.50
2022-08-10T06:05:06.883Z,2.90
2022-08-10T06:06:06.896Z,2.90
2022-08-10T06:07:06.910Z,2.40
2022-08-10T06:08:06.924Z,2.50
2022-08-10T06:09:06.937Z,2.60
2022-08-10T06:10:10.173Z,2.20
2022-08-10T06:12:23.892Z,2.50
2022-08-10T06:12:23.949Z,2.40
2022-08-10T06:13:06.988Z,2.80
2022-08-10T06:14:13.335Z,2.80
2022-08-10T06:15:10.330Z,2.90
2022-08-10T06:16:07.033Z,3.10
2022-08-10T06:17:07.040Z,3.70
2022-08-10T06:18:07.054Z,2.30
2022-08-10T06:19:07.071Z,3.60
2022-08-10T06:20:07.083Z,2.50
2022-08-10T06:21:07.097Z,2.90
2022-08-10T06:22:07.110Z,2.90
2022-08-10T06:23:07.122Z,2.60
2022-08-10T06:24:07.138Z,2.80
2022-08-10T06:26:09.857Z,2.30
2022-08-10T06:26:11.757Z,2.80
2022-08-10T06:27:07.175Z,3.00
2022-08-10T06:28:07.189Z,2.70
2022-08-10T06:29:07.222Z,2.00
2022-08-10T06:30:20.343Z,2.10
2022-08-10T06:31:07.230Z,2.40
2022-08-10T06:32:07.243Z,2.40
2022-08-10T06:33:07.255Z,2.00
2022-08-10T06:34:07.269Z,2.30
2022-08-10T06:35:07.282Z,2.40
2022-08-10T06:36:07.295Z,2.40
2022-08-10T06:37:07.307Z,2.40
2022-08-10T06:38:07.320Z,2.10
2022-08-10T06:39:31.869Z,2.40
2022-08-10T06:40:07.418Z,2.20
2022-08-10T06:41:07.360Z,2.20
2022-08-10T06:42:15.817Z,2.50
2022-08-10T06:43:07.388Z,2.00
2022-08-10T06:44:07.401Z,1.80
2022-08-10T06:45:07.414Z,2.80
2022-08-10T06:46:08.718Z,2.10
2022-08-10T06:47:07.442Z,1.80
2022-08-10T06:48:07.454Z,1.90
2022-08-10T06:49:07.468Z,3.20
2022-08-10T06:50:08.772Z,2.20
2022-08-10T06:51:07.494Z,2.40
2022-08-10T06:52:07.507Z,1.80
2022-08-10T06:53:07.518Z,2.40
2022-08-10T06:54:07.533Z,1.90
2022-08-10T06:55:08.915Z,2.00
2022-08-10T06:56:07.560Z,1.70
2022-08-10T06:57:17.782Z,1.80
2022-08-10T06:58:07.587Z,1.70
2022-08-10T06:59:07.601Z,2.30
2022-08-10T07:00:07.614Z,1.90
2022-08-10T07:01:07.706Z,1.80
2022-08-10T07:02:07.640Z,1.80
2022-08-10T07:03:08.063Z,1.70
2022-08-10T07:04:07.669Z,1.60
2022-08-10T07:05:07.680Z,2.00
2022-08-10T07:06:07.691Z,1.80
2022-08-10T07:07:07.707Z,1.70
2022-08-10T07:08:07.720Z,1.60
2022-08-10T07:09:07.733Z,1.60
2022-08-10T07:10:07.746Z,2.10
2022-08-10T07:11:11.840Z,2.10
2022-08-10T07:12:09.024Z,2.30
2022-08-10T07:13:07.784Z,1.80
2022-08-10T07:14:15.696Z,1.80
2022-08-10T07:15:07.813Z,2.10
2022-08-10T07:16:07.827Z,1.70
2022-08-10T07:17:07.839Z,1.70
2022-08-10T07:18:07.853Z,1.60
2022-08-10T07:19:07.865Z,1.80
2022-08-10T07:20:07.879Z,1.70
2022-08-10T07:21:07.894Z,1.70
2022-08-10T07:22:07.905Z,1.70
2022-08-10T07:23:58.119Z,1.70
2022-08-10T07:24:08.427Z,1.60
2022-08-10T07:25:07.947Z,1.70
2022-08-10T07:26:07.958Z,1.60
2022-08-10T07:27:07.974Z,1.50
2022-08-10T07:28:07.986Z,2.10
2022-08-10T07:29:07.998Z,1.90
2022-08-10T07:30:08.011Z,2.00
2022-08-10T07:31:54.740Z,2.10
2022-08-10T07:32:08.039Z,1.60
2022-08-10T07:33:08.050Z,1.50
2022-08-10T07:34:08.066Z,1.70
2022-08-10T07:35:08.077Z,1.50
2022-08-10T07:36:08.092Z,1.60
2022-08-10T07:37:08.105Z,1.50
2022-08-10T07:38:08.118Z,1.80
2022-08-10T07:39:08.199Z,1.30
2022-08-10T07:40:08.249Z,1.50
2022-08-10T07:41:08.158Z,1.60
2022-08-10T07:42:08.171Z,1.80
2022-08-10T07:43:08.185Z,1.30
2022-08-10T07:44:08.199Z,2.10
2022-08-10T07:45:08.212Z,1.50
2022-08-10T07:46:09.462Z,1.30
2022-08-10T07:47:08.238Z,1.30
2022-08-10T07:48:08.397Z,1.40
2022-08-10T07:49:15.245Z,1.20
2022-08-10T07:50:08.277Z,1.40
2022-08-10T07:51:08.291Z,1.30
2022-08-10T07:52:08.305Z,1.30
2022-08-10T07:53:08.319Z,1.70
2022-08-10T07:54:08.335Z,1.50
2022-08-10T07:55:08.345Z,1.50
2022-08-10T07:56:21.292Z,1.20
2022-08-10T07:57:08.370Z,1.40
2022-08-10T07:58:08.384Z,1.50
2022-08-10T07:59:08.397Z,1.30
2022-08-10T08:00:08.412Z,1.40
2022-08-10T08:01:08.422Z,1.00
2022-08-10T08:02:08.526Z,1.40
2022-08-10T08:03:08.450Z,1.10
2022-08-10T08:04:11.862Z,1.20
2022-08-10T08:05:08.476Z,1.60
2022-08-10T08:06:11.774Z,1.40
2022-08-10T08:07:08.505Z,1.00
2022-08-10T08:08:08.516Z,1.10
2022-08-10T08:09:08.532Z,1.20
2022-08-10T08:10:08.546Z,1.30
2022-08-10T08:11:08.556Z,1.10
2022-08-10T08:12:08.569Z,1.80
2022-08-10T08:13:08.582Z,1.20
2022-08-10T08:14:08.595Z,1.20
2022-08-10T08:16:14.497Z,1.10
2022-08-10T08:16:17.622Z,1.20
2022-08-10T08:17:08.637Z,1.10
2022-08-10T08:18:08.663Z,1.00
2022-08-10T08:19:27.960Z,1.20
2022-08-10T08:20:08.676Z,1.00
2022-08-10T08:24:02.217Z,0.90
2022-08-10T08:24:06.417Z,1.00
2022-08-10T08:24:07.376Z,1.10
2022-08-10T08:24:30.801Z,1.10
2022-08-10T08:25:14.400Z,1.30
2022-08-10T08:26:08.755Z,1.10
2022-08-10T08:27:08.772Z,1.00
2022-08-10T08:28:08.783Z,1.40
2022-08-10T08:29:08.793Z,0.70
2022-08-10T08:30:08.808Z,1.20
2022-08-10T08:31:08.820Z,0.90
2022-08-10T08:32:08.836Z,0.80
2022-08-10T08:33:08.848Z,1.10
2022-08-10T08:34:08.862Z,1.00
2022-08-10T08:35:08.875Z,1.10
2022-08-10T08:36:08.888Z,1.20
2022-08-10T08:37:08.940Z,1.10
2022-08-10T08:38:29.453Z,1.30
2022-08-10T08:39:08.961Z,1.00
2022-08-10T08:40:08.963Z,0.80
2022-08-10T08:41:08.954Z,1.10
2022-08-10T08:42:08.966Z,1.10
2022-08-10T08:43:08.981Z,1.00
2022-08-10T08:44:08.993Z,1.00
2022-08-10T08:45:09.007Z,1.00
2022-08-10T08:46:09.019Z,1.00
2022-08-10T08:48:01.050Z,1.00
2022-08-10T08:48:09.046Z,1.30
2022-08-10T08:49:09.061Z,1.00
2022-08-10T08:50:10.241Z,1.20
2022-08-10T08:51:09.087Z,1.00
2022-08-10T08:52:18.175Z,0.90
2022-08-10T08:53:21.221Z,1.20
2022-08-10T08:54:09.129Z,0.90
2022-08-10T08:56:02.887Z,0.80
2022-08-10T08:56:09.156Z,0.80
2022-08-10T08:57:09.165Z,1.10
2022-08-10T08:58:09.180Z,0.80
2022-08-10T08:59:09.192Z,0.90
2022-08-10T09:00:09.207Z,0.90
2022-08-10T09:01:09.238Z,0.90
2022-08-10T09:02:09.263Z,0.80
2022-08-10T09:03:09.246Z,0.90
2022-08-10T09:04:19.912Z,1.00
2022-08-10T09:05:09.270Z,1.40
2022-08-10T09:06:09.285Z,0.80
2022-08-10T09:07:56.275Z,1.10
2022-08-10T09:08:09.314Z,0.70
2022-08-10T09:09:09.331Z,0.60
2022-08-10T09:10:09.336Z,0.70
2022-08-10T09:11:09.353Z,1.80
2022-08-10T09:12:09.364Z,0.90
2022-08-10T09:13:09.378Z,0.70
2022-08-10T09:14:09.391Z,0.80
2022-08-10T09:15:09.405Z,0.70
2022-08-10T09:16:09.420Z,0.90
2022-08-10T09:17:09.431Z,0.80
2022-08-10T09:18:09.444Z,1.00
2022-08-10T09:19:09.458Z,0.70
2022-08-10T09:20:09.470Z,0.60
2022-08-10T09:21:09.488Z,0.60
2022-08-10T09:22:18.401Z,0.60
2022-08-10T09:23:09.510Z,1.10
2022-08-10T09:24:09.528Z,0.70
2022-08-10T09:25:09.537Z,0.80
2022-08-10T09:26:09.551Z,1.20
2022-08-10T09:27:09.563Z,0.80
2022-08-10T09:28:09.577Z,0.70
2022-08-10T09:29:11.788Z,0.60
2022-08-10T09:30:09.605Z,0.90
2022-08-10T09:31:26.088Z,0.70
2022-08-10T09:36:17.010Z,0.60
2022-08-10T09:36:20.697Z,1.40
2022-08-10T09:36:23.508Z,0.80
2022-08-10T09:36:23.868Z,0.90
2022-08-10T09:36:26.376Z,1.50
2022-08-10T09:37:09.696Z,0.70
2022-08-10T09:38:09.709Z,1.50
2022-08-10T09:39:09.765Z,0.70
2022-08-10T09:41:01.159Z,0.90
2022-08-10T09:41:13.294Z,1.00
2022-08-10T09:42:14.832Z,1.10
2022-08-10T09:43:25.214Z,0.80
2022-08-10T09:44:09.792Z,0.80
2022-08-10T09:45:09.802Z,0.70
2022-08-10T09:46:11.809Z,0.70
2022-08-10T09:47:09.826Z,0.60
2022-08-10T09:48:09.844Z,0.80
2022-08-10T09:49:09.863Z,1.30
2022-08-10T09:50:09.868Z,0.50
2022-08-10T09:51:42.095Z,0.80
2022-08-10T09:52:09.898Z,0.70
2022-08-10T09:53:09.905Z,0.70
2022-08-10T09:54:09.920Z,1.40
2022-08-10T09:55:09.935Z,0.50
2022-08-10T09:56:18.047Z,0.70
2022-08-10T09:57:41.555Z,0.50
2022-08-10T09:58:09.973Z,0.60
2022-08-10T09:59:45.859Z,0.70
2022-08-10T10:00:10.002Z,1.10
2022-08-10T10:01:10.012Z,0.80
2022-08-10T10:02:10.026Z,0.80
2022-08-10T10:03:10.131Z,1.10
2022-08-10T10:04:10.052Z,0.50
2022-08-10T10:05:10.064Z,0.40
2022-08-10T10:06:10.078Z,0.70
2022-08-10T10:07:10.094Z,0.60
2022-08-10T10:08:10.104Z,0.40
2022-08-10T10:09:10.876Z,0.90
2022-08-10T10:10:10.131Z,0.60
2022-08-10T10:11:10.145Z,0.50
2022-08-10T10:12:10.284Z,0.80
2022-08-10T10:13:10.172Z,1.20
2022-08-10T10:14:12.467Z,0.40
2022-08-10T10:15:10.196Z,0.60
2022-08-10T10:16:10.216Z,0.50
2022-08-10T10:17:10.222Z,0.50
2022-08-10T10:18:10.243Z,0.50
2022-08-10T10:19:10.252Z,0.80
2022-08-10T10:20:10.264Z,0.40
2022-08-10T10:21:10.275Z,2.20
2022-08-10T10:22:10.288Z,1.30
2022-08-10T10:23:10.303Z,0.50
2022-08-10T10:24:21.291Z,0.70
2022-08-10T10:25:19.717Z,0.40
2022-08-10T10:26:17.644Z,0.90
2022-08-10T10:27:16.002Z,0.60
2022-08-10T10:28:10.368Z,0.70
2022-08-10T10:29:37.418Z,0.70
2022-08-10T10:30:10.395Z,0.60
2022-08-10T10:31:16.630Z,0.60
2022-08-10T10:32:10.429Z,0.40
2022-08-10T10:33:13.034Z,0.60
2022-08-10T10:34:10.447Z,0.40
2022-08-10T10:35:10.461Z,0.90
2022-08-10T10:36:10.475Z,0.50
2022-08-10T10:37:10.487Z,0.30
2022-08-10T10:38:10.541Z,0.90
2022-08-10T10:39:10.557Z,0.30
2022-08-10T10:40:10.527Z,0.50
2022-08-10T10:41:10.540Z,0.40
2022-08-10T10:42:23.212Z,1.20
2022-08-10T10:43:10.566Z,0.50
2022-08-10T10:44:10.582Z,0.50
2022-08-10T10:45:10.592Z,0.50
2022-08-10T10:46:10.607Z,0.50
2022-08-10T10:47:10.621Z,0.50
2022-08-10T10:48:10.633Z,0.60
2022-08-10T10:49:10.647Z,0.60
2022-08-10T10:50:10.662Z,1.10
2022-08-10T10:51:11.151Z,0.30
2022-08-10T10:52:10.686Z,0.70
2022-08-10T10:53:10.699Z,0.60
2022-08-10T10:54:10.712Z,0.60
2022-08-10T10:55:10.724Z,1.20
2022-08-10T10:56:14.669Z,0.50
2022-08-10T10:57:10.750Z,0.50
2022-08-10T10:58:10.765Z,0.40
2022-08-10T10:59:16.151Z,0.40
2022-08-10T11:00:10.834Z,1.00
2022-08-10T11:01:10.836Z,0.70
2022-08-10T11:02:10.818Z,0.30
2022-08-10T11:03:10.830Z,0.30
2022-08-10T11:04:10.844Z,1.00
2022-08-10T11:05:10.856Z,0.50
2022-08-10T11:06:10.868Z,0.30
2022-08-10T11:07:10.884Z,0.80
2022-08-10T11:08:12.228Z,0.40
2022-08-10T11:09:11.555Z,0.40
2022-08-10T11:10:33.200Z,0.40
2022-08-10T11:11:20.482Z,0.40
2022-08-10T11:12:10.949Z,0.30
2022-08-10T11:14:25.003Z,0.50
2022-08-10T11:14:25.928Z,0.30
2022-08-10T11:15:10.992Z,0.40
2022-08-10T11:16:11.008Z,0.90
2022-08-10T11:17:11.014Z,1.10
2022-08-10T11:18:11.028Z,0.50
2022-08-10T11:19:11.041Z,0.40
2022-08-10T11:20:11.054Z,0.50
2022-08-10T11:21:11.065Z,0.30
2022-08-10T11:22:15.847Z,0.50
2022-08-10T11:23:11.093Z,0.40
2022-08-10T11:24:48.584Z,0.30
2022-08-10T11:25:11.120Z,0.70
2022-08-10T11:26:11.135Z,0.30
2022-08-10T11:27:21.609Z,0.30
2022-08-10T11:28:11.157Z,0.40
2022-08-10T11:29:11.175Z,0.30
2022-08-10T11:30:11.185Z,0.20
2022-08-10T11:31:11.197Z,0.20
2022-08-10T11:32:20.632Z,0.50
2022-08-10T11:33:11.224Z,0.50
2022-08-10T11:34:46.889Z,1.20
2022-08-10T11:35:12.766Z,1.20
2022-08-10T11:36:11.265Z,0.60
2022-08-10T11:37:11.277Z,0.50
2022-08-10T11:38:31.616Z,0.20
2022-08-10T11:39:14.342Z,0.30
2022-08-10T11:40:11.415Z,0.50
2022-08-10T11:42:05.229Z,0.60
2022-08-10T11:42:21.275Z,0.40
2022-08-10T11:43:11.359Z,0.30
2022-08-10T11:44:11.373Z,0.30
2022-08-10T11:45:11.388Z,0.40
2022-08-10T11:46:16.461Z,0.50
2022-08-10T11:47:11.410Z,0.90
2022-08-10T11:48:11.423Z,0.30
2022-08-10T11:49:11.435Z,0.30
2022-08-10T11:50:11.450Z,1.00
2022-08-10T11:51:11.462Z,0.40
2022-08-10T11:52:11.481Z,0.40
2022-08-10T11:53:11.486Z,0.30
2022-08-10T11:54:11.516Z,0.40
2022-08-10T11:55:12.353Z,0.80
2022-08-10T11:56:11.563Z,0.30
2022-08-10T11:57:11.541Z,0.50
2022-08-10T11:58:11.555Z,0.60
2022-08-10T11:59:16.605Z,0.30
2022-08-10T12:00:11.781Z,0.30
2022-08-10T12:01:11.594Z,0.40
2022-08-10T12:02:11.675Z,0.40
2022-08-10T12:03:11.656Z,1.30
2022-08-10T12:04:12.295Z,0.80
2022-08-10T12:05:11.649Z,0.40
2022-08-10T12:06:11.660Z,0.40
2022-08-10T12:09:23.956Z,0.60
2022-08-10T12:10:06.058Z,0.40
2022-08-10T12:10:06.635Z,0.40
2022-08-10T12:10:13.479Z,0.70
2022-08-10T12:11:11.725Z,1.20
2022-08-10T12:12:11.737Z,0.60
2022-08-10T12:13:11.750Z,1.00
2022-08-10T12:14:21.376Z,0.50
2022-08-10T12:15:11.777Z,0.60
2022-08-10T12:16:11.789Z,0.80
2022-08-10T12:17:11.822Z,0.50
2022-08-10T12:18:11.816Z,0.70
2022-08-10T12:19:11.829Z,1.80
2022-08-10T12:20:11.841Z,0.50
2022-08-10T12:21:21.654Z,0.50
2022-08-10T12:22:11.868Z,0.40
2022-08-10T12:23:11.884Z,0.70
2022-08-10T12:24:11.894Z,0.60
2022-08-10T12:25:11.906Z,0.60
2022-08-10T12:26:11.919Z,1.10
2022-08-10T12:27:13.032Z,0.70
2022-08-10T12:28:12.198Z,0.70
2022-08-10T12:29:11.958Z,1.60
2022-08-10T12:30:11.971Z,0.70
2022-08-10T12:31:11.985Z,1.20
2022-08-10T12:32:12.000Z,0.80
2022-08-10T12:33:12.013Z,0.60
2022-08-10T12:34:12.174Z,0.50
2022-08-10T12:35:12.036Z,0.70
2022-08-10T12:36:18.164Z,0.70
2022-08-10T12:37:12.062Z,1.50
2022-08-10T12:38:12.075Z,0.80
2022-08-10T12:39:12.190Z,0.60
2022-08-10T12:40:38.452Z,0.90
2022-08-10T12:41:12.114Z,0.70
2022-08-10T12:42:12.131Z,0.80
2022-08-10T12:44:04.407Z,0.70
2022-08-10T12:44:12.231Z,0.60
2022-08-10T12:45:12.168Z,0.80
2022-08-10T12:46:12.229Z,1.80
2022-08-10T12:47:14.316Z,0.60
2022-08-10T12:48:12.214Z,0.60
2022-08-10T12:49:12.218Z,0.70
2022-08-10T12:50:30.831Z,0.60
2022-08-10T12:51:12.244Z,0.90
2022-08-10T12:52:12.309Z,0.80
2022-08-10T12:53:12.272Z,1.40
2022-08-10T12:54:12.288Z,0.90
2022-08-10T12:55:12.300Z,1.00
2022-08-10T12:56:12.310Z,0.90
2022-08-10T12:57:12.325Z,0.90
2022-08-10T12:58:57.085Z,0.90
2022-08-10T12:59:12.349Z,0.80
2022-08-10T13:00:17.246Z,2.10
2022-08-10T13:01:16.458Z,1.10
2022-08-10T13:02:12.425Z,1.00
2022-08-10T13:03:12.403Z,0.80
2022-08-10T13:04:21.025Z,0.80
2022-08-10T13:05:12.429Z,1.10
2022-08-10T13:06:12.440Z,0.80
2022-08-10T13:08:04.091Z,1.00
2022-08-10T13:08:26.499Z,0.90
2022-08-10T13:09:12.494Z,1.10
2022-08-10T13:10:12.542Z,1.40
2022-08-10T13:12:34.151Z,0.90
2022-08-10T13:12:39.259Z,0.90
2022-08-10T13:13:12.530Z,1.10
2022-08-10T13:14:12.543Z,0.90
2022-08-10T13:15:25.255Z,1.40
2022-08-10T13:16:12.622Z,1.20
2022-08-10T13:17:12.583Z,1.00
2022-08-10T13:18:18.852Z,1.30